Time;durP1;ratioP1;P1;durP2;ratioP2;P2;SDS_P1;SDS_P2;PMS_P1;PMS_P2;Temp;Humidity;BMP_temperature;BMP_pressure;BME280_temperature;BME280_humidity;BME280_pressure;Samples;Min_cycle;Max_cycle;Signal;HPM_P1;HPM_P2
2021/05/12 03:01:53;;;;;;;7.17;5.35;;;;;;;7.23;100.00;100444.20;1694004;78;65022;-71
2021/05/12 03:04:19;;;;;;;7.92;5.92;;;;;;;7.24;100.00;100436.78;1658308;85;22734;-71
2021/05/12 03:06:45;;;;;;;5.20;4.70;;;;;;;7.26;100.00;100445.20;1672518;84;21531;-66
2021/05/12 03:09:12;;;;;;;7.92;4.83;;;;;;;7.25;100.00;100448.28;1674471;85;21311;-74
2021/05/12 03:11:38;;;;;;;5.67;4.75;;;;;;;7.28;100.00;100445.87;1659850;85;21034;-70
2021/05/12 03:14:05;;;;;;;6.47;4.10;;;;;;;7.30;100.00;100445.21;1660985;85;21069;-69
2021/05/12 03:16:32;;;;;;;5.00;4.30;;;;;;;7.32;100.00;100451.06;1672835;85;21587;-72
2021/05/12 03:18:58;;;;;;;6.25;4.25;;;;;;;7.33;100.00;100453.17;1671168;85;21870;-69
2021/05/12 03:21:25;;;;;;;5.30;4.30;;;;;;;7.33;100.00;100451.38;1658553;85;21059;-71
2021/05/12 03:23:51;;;;;;;5.15;3.92;;;;;;;7.34;100.00;100456.89;1667037;85;21289;-73
2021/05/12 03:26:18;;;;;;;4.13;3.33;;;;;;;7.33;100.00;100448.79;1589200;87;21047;-73
2021/05/12 03:28:44;;;;;;;5.17;3.73;;;;;;;7.34;100.00;100449.11;1669285;85;21992;-72
2021/05/12 03:31:13;;;;;;;4.67;3.20;;;;;;;7.35;100.00;100453.35;1672027;85;21005;-72
2021/05/12 03:33:40;;;;;;;4.70;3.13;;;;;;;7.35;100.00;100451.22;1652163;84;21414;-68
2021/05/12 03:36:07;;;;;;;5.03;3.60;;;;;;;7.37;100.00;100455.28;1669699;85;21165;-68
2021/05/12 03:38:34;;;;;;;4.77;3.50;;;;;;;7.37;100.00;100462.26;1672992;85;21669;-72
2021/05/12 03:41:01;;;;;;;4.40;3.10;;;;;;;7.36;100.00;100455.45;1663566;85;21655;-72
2021/05/12 03:43:27;;;;;;;4.37;3.40;;;;;;;7.35;100.00;100448.16;1671311;85;21519;-68
2021/05/12 03:45:53;;;;;;;4.80;3.67;;;;;;;7.37;100.00;100456.58;1671524;85;21304;-73
2021/05/12 03:48:20;;;;;;;5.30;3.30;;;;;;;7.40;100.00;100446.39;1675739;85;21367;-73
2021/05/12 03:50:46;;;;;;;5.20;2.83;;;;;;;7.44;100.00;100452.88;1662059;85;21374;-74
2021/05/12 03:53:13;;;;;;;4.87;2.90;;;;;;;7.49;100.00;100456.61;1672672;85;21814;-70
2021/05/12 03:55:39;;;;;;;4.40;2.30;;;;;;;7.53;100.00;100452.73;1668462;85;20998;-68
2021/05/12 03:58:06;;;;;;;4.63;2.23;;;;;;;7.56;100.00;100461.50;1669153;84;22728;-74
2021/05/12 04:00:32;;;;;;;5.03;2.70;;;;;;;7.57;100.00;100462.31;1670640;84;22989;-72
2021/05/12 04:02:59;;;;;;;3.10;2.30;;;;;;;7.56;100.00;100452.42;1668836;85;21808;-71
2021/05/12 04:05:25;;;;;;;2.65;2.02;;;;;;;7.60;100.00;100459.89;1671242;84;21362;-68
2021/05/12 04:07:51;;;;;;;3.30;2.30;;;;;;;7.61;100.00;100458.91;1665320;84;21086;-72
2021/05/12 04:10:19;;;;;;;3.50;2.00;;;;;;;7.63;100.00;100458.28;1666511;85;21287;-70
2021/05/12 04:12:45;;;;;;;4.53;1.90;;;;;;;7.62;100.00;100477.42;1666889;85;21459;-73
2021/05/12 04:15:12;;;;;;;2.87;1.53;;;;;;;7.65;100.00;100470.14;1667161;85;21201;-70
2021/05/12 04:17:39;;;;;;;2.23;1.33;;;;;;;7.66;100.00;100460.56;1667452;84;21757;-73
2021/05/12 04:20:10;;;;;;;3.20;1.60;;;;;;;7.70;100.00;100468.36;1664848;84;21706;-68
2021/05/12 04:22:37;;;;;;;7.05;2.87;;;;;;;7.71;100.00;100466.08;1660905;85;22321;-71
2021/05/12 04:25:06;;;;;;;3.83;1.80;;;;;;;7.73;100.00;100477.94;1664701;84;21019;-74
2021/05/12 04:27:32;;;;;;;4.07;2.17;;;;;;;7.73;100.00;100466.26;1668240;85;21424;-72
2021/05/12 04:29:58;;;;;;;4.65;1.40;;;;;;;7.76;100.00;100466.41;1664706;85;21240;-67
2021/05/12 04:32:25;;;;;;;4.28;1.65;;;;;;;7.80;100.00;100482.81;1668151;84;22096;-71
2021/05/12 04:34:51;;;;;;;3.83;1.80;;;;;;;7.84;100.00;100471.64;1666697;85;21927;-71
2021/05/12 04:37:17;;;;;;;6.17;3.03;;;;;;;7.87;100.00;100473.89;1665787;85;21244;-70
2021/05/12 04:39:44;;;;;;;5.15;1.87;;;;;;;7.90;100.00;100480.06;1667546;85;21240;-72
2021/05/12 04:42:10;;;;;;;3.47;1.50;;;;;;;7.93;100.00;100478.94;1667688;84;21830;-68
2021/05/12 04:44:36;;;;;;;4.47;1.87;;;;;;;7.96;100.00;100491.61;1668446;84;22084;-72
2021/05/12 04:47:03;;;;;;;2.77;1.20;;;;;;;7.99;100.00;100486.06;1667495;84;22171;-69
2021/05/12 04:49:29;;;;;;;3.97;1.10;;;;;;;8.01;100.00;100499.72;1669808;84;21337;-72
2021/05/12 04:51:55;;;;;;;2.90;1.20;;;;;;;8.02;100.00;100482.67;1663258;84;21267;-71
2021/05/12 04:54:22;;;;;;;2.83;1.00;;;;;;;8.04;100.00;100489.82;1661762;85;21333;-71
2021/05/12 04:56:49;;;;;;;4.03;1.30;;;;;;;8.05;100.00;100490.63;1668239;84;21382;-73
2021/05/12 04:59:16;;;;;;;2.27;1.20;;;;;;;8.07;100.00;100495.19;1665577;84;21171;-74
2021/05/12 05:01:42;;;;;;;4.30;1.53;;;;;;;8.08;100.00;100492.10;1672011;84;21788;-71
2021/05/12 05:04:09;;;;;;;2.27;0.90;;;;;;;8.11;100.00;100485.30;1681467;84;21218;-69
2021/05/12 05:06:35;;;;;;;3.23;1.70;;;;;;;8.16;100.00;100488.21;1643550;85;23592;-67
2021/05/12 05:09:06;;;;;;;4.10;1.43;;;;;;;8.19;100.00;100499.58;1627492;86;21502;-68
2021/05/12 05:11:31;;;;;;;3.13;1.40;;;;;;;8.23;100.00;100494.38;1633222;84;21384;-71
2021/05/12 05:13:57;;;;;;;4.23;1.10;;;;;;;8.29;100.00;100500.22;1651672;85;21307;-69
2021/05/12 05:16:23;;;;;;;7.17;1.90;;;;;;;8.36;100.00;100491.30;1670216;85;21342;-70
2021/05/12 05:18:51;;;;;;;5.67;1.40;;;;;;;8.43;100.00;100493.11;1675472;84;21564;-67
2021/05/12 05:21:18;;;;;;;2.80;1.47;;;;;;;8.51;100.00;100491.80;1669429;85;21470;-72
2021/05/12 05:23:44;;;;;;;4.33;1.97;;;;;;;8.56;100.00;100491.80;1669498;84;21892;-70
2021/05/12 05:26:11;;;;;;;4.07;1.60;;;;;;;8.55;100.00;100490.98;1675407;83;21315;-71
2021/05/12 05:28:37;;;;;;;4.13;1.70;;;;;;;8.55;100.00;100499.27;1679705;84;21167;-68
2021/05/12 05:31:03;;;;;;;2.77;1.20;;;;;;;8.55;100.00;100487.09;1665769;85;22704;-71
2021/05/12 05:33:48;;;;;;;6.17;1.30;;;;;;;8.53;100.00;100491.66;1679369;83;21642;-71
2021/05/12 05:36:32;;;;;;;5.93;1.90;;;;;;;8.50;100.00;100483.69;1668220;84;21307;-72
2021/05/12 05:39:17;;;;;;;6.63;1.70;;;;;;;8.50;100.00;100492.78;1678854;83;21218;-74
2021/05/12 05:42:06;;;;;;;3.83;1.10;;;;;;;8.47;100.00;100487.91;1674768;83;21554;-75
2021/05/12 05:44:51;;;;;;;6.03;1.80;;;;;;;8.47;100.00;100503.98;1660507;84;23440;-72
2021/05/12 05:47:35;;;;;;;4.17;1.20;;;;;;;8.51;100.00;100485.80;1675019;83;21280;-73
2021/05/12 05:50:21;;;;;;;4.27;1.43;;;;;;;8.55;100.00;100494.08;1636813;84;21205;-75
2021/05/12 05:53:06;;;;;;;3.90;1.40;;;;;;;8.57;100.00;100485.64;1638499;84;21364;-70
2021/05/12 05:55:50;;;;;;;7.27;1.13;;;;;;;8.59;100.00;100490.98;1674896;84;21918;-72
2021/05/12 05:58:35;;;;;;;6.83;2.00;;;;;;;8.63;100.00;100487.56;1668849;83;22679;-77
2021/05/12 06:01:20;;;;;;;7.53;1.77;;;;;;;8.64;100.00;100486.12;1676993;85;21835;-72
2021/05/12 06:03:46;;;;;;;5.97;1.73;;;;;;;8.68;100.00;100494.40;1649848;85;21186;-70
2021/05/12 06:06:31;;;;;;;4.73;1.90;;;;;;;8.69;100.00;100487.73;1634616;86;21429;-73
2021/05/12 06:09:16;;;;;;;6.03;1.40;;;;;;;8.70;100.00;100492.44;1628120;85;21229;-71
2021/05/12 06:12:01;;;;;;;4.40;1.50;;;;;;;8.69;100.00;100493.41;1595750;88;22757;-74
2021/05/12 06:14:46;;;;;;;3.90;1.27;;;;;;;8.66;100.00;100491.95;1636257;86;21296;-72
2021/05/12 06:17:32;;;;;;;7.17;1.60;;;;;;;8.65;100.00;100487.73;1636000;86;22998;-73
2021/05/12 06:20:17;;;;;;;6.20;1.90;;;;;;;8.66;100.00;100493.73;1644779;86;21285;-68
2021/05/12 06:23:05;;;;;;;5.63;1.43;;;;;;;8.68;100.00;100493.91;1635518;86;22498;-71
2021/05/12 06:25:52;;;;;;;4.53;1.50;;;;;;;8.70;100.00;100489.83;1635659;86;21965;-67
2021/05/12 06:28:37;;;;;;;6.00;1.60;;;;;;;8.72;100.00;100493.09;1638429;86;21440;-72
2021/05/12 06:31:22;;;;;;;7.17;1.60;;;;;;;8.74;100.00;100494.53;1644540;86;21368;-67
2021/05/12 06:34:06;;;;;;;7.50;1.67;;;;;;;8.76;100.00;100491.78;1628601;85;21673;-74
2021/05/12 06:36:46;;;;;;;7.07;1.70;;;;;;;8.77;100.00;100486.91;1591802;87;21357;-76
2021/05/12 06:39:31;;;;;;;7.50;1.60;;;;;;;8.80;100.00;100482.67;1618802;86;23522;-72
2021/05/12 06:41:59;;;;;;;6.43;1.10;;;;;;;8.81;100.00;100481.69;1643162;86;21439;-76
2021/05/12 06:44:26;;;;;;;6.03;1.40;;;;;;;8.82;100.00;100485.91;1625786;85;21316;-74
2021/05/12 06:46:52;;;;;;;7.93;1.63;;;;;;;8.83;100.00;100490.15;1634069;85;21357;-70
2021/05/12 06:49:20;;;;;;;5.50;1.27;;;;;;;8.79;100.00;100491.46;1592748;87;21283;-73
2021/05/12 06:51:48;;;;;;;6.53;1.57;;;;;;;8.75;100.00;100503.14;1631140;86;21307;-72
2021/05/12 06:54:14;;;;;;;5.77;1.50;;;;;;;8.72;100.00;100493.90;1624253;86;21430;-75
2021/05/12 06:56:40;;;;;;;5.70;1.00;;;;;;;8.71;100.00;100494.88;1650604;85;21405;-66
2021/05/12 06:59:07;;;;;;;4.80;1.00;;;;;;;8.71;100.00;100489.69;1635090;85;21347;-78
2021/05/12 07:01:33;;;;;;;3.80;1.00;;;;;;;8.70;100.00;100489.83;1644691;86;21794;-72
2021/05/12 07:03:59;;;;;;;4.30;1.40;;;;;;;8.68;100.00;100500.41;1642450;85;22595;-73
2021/05/12 07:06:25;;;;;;;7.00;1.97;;;;;;;8.65;100.00;100497.33;1631962;86;21303;-74
2021/05/12 07:08:52;;;;;;;3.50;1.10;;;;;;;8.59;100.00;100494.07;1644292;86;21227;-72
2021/05/12 07:11:19;;;;;;;3.73;1.30;;;;;;;8.51;100.00;100489.69;1639965;86;21517;-74
2021/05/12 07:13:46;;;;;;;5.30;1.47;;;;;;;8.42;100.00;100490.19;1641571;85;21314;-73
2021/05/12 07:16:12;;;;;;;8.63;1.40;;;;;;;8.39;100.00;100502.20;1640203;86;21242;-74
2021/05/12 07:18:39;;;;;;;7.20;1.33;;;;;;;8.39;100.00;100499.61;1636917;87;21310;-71
2021/05/12 07:21:05;;;;;;;8.57;1.50;;;;;;;8.32;100.00;100492.10;1621695;86;21140;-69
2021/05/12 07:23:31;;;;;;;5.00;1.13;;;;;;;8.29;100.00;100489.83;1642450;86;21722;-67
2021/05/12 07:25:58;;;;;;;7.20;2.00;;;;;;;8.26;100.00;100487.58;1608139;87;21280;-72
2021/05/12 07:28:24;;;;;;;3.73;1.20;;;;;;;8.24;100.00;100485.61;1645474;86;21868;-71
2021/05/12 07:30:51;;;;;;;6.27;1.30;;;;;;;8.20;100.00;100481.23;1635503;86;21022;-72
2021/05/12 07:33:17;;;;;;;6.83;1.10;;;;;;;8.19;100.00;100485.30;1626754;86;21175;-74
2021/05/12 07:35:44;;;;;;;6.83;1.30;;;;;;;8.17;100.00;100479.44;1643570;86;22331;-75
2021/05/12 07:38:11;;;;;;;5.10;1.10;;;;;;;8.19;100.00;100482.70;1641965;87;21366;-74
2021/05/12 07:40:37;;;;;;;4.67;1.20;;;;;;;8.23;100.00;100476.20;1626847;86;21276;-73
2021/05/12 07:43:08;;;;;;;3.60;1.27;;;;;;;8.32;100.00;100480.41;1631694;86;21396;-74
2021/05/12 07:45:35;;;;;;;3.63;1.20;;;;;;;8.49;100.00;100476.88;1624833;87;21894;-73
2021/05/12 07:48:01;;;;;;;4.97;1.57;;;;;;;8.70;100.00;100472.45;1622500;86;21704;-74
2021/05/12 07:50:27;;;;;;;3.30;1.20;;;;;;;8.87;100.00;100466.74;1625782;86;21380;-72
2021/05/12 07:52:54;;;;;;;3.40;0.90;;;;;;;8.97;100.00;100468.64;1644023;86;21897;-75
2021/05/12 07:55:20;;;;;;;3.27;1.10;;;;;;;9.07;100.00;100464.56;1637569;87;21299;-66
2021/05/12 07:57:47;;;;;;;3.00;0.80;;;;;;;9.13;100.00;100460.00;1640372;87;21329;-65
2021/05/12 08:00:15;;;;;;;2.57;0.83;;;;;;;9.21;100.00;100454.77;1643687;86;21290;-72
2021/05/12 08:02:41;;;;;;;4.07;1.00;;;;;;;9.33;100.00;100457.80;1650214;85;21337;-71
2021/05/12 08:05:10;;;;;;;3.57;0.90;;;;;;;9.48;100.00;100452.19;1671177;85;21363;-74
2021/05/12 08:07:37;;;;;;;2.37;0.90;;;;;;;9.63;100.00;100447.56;1662608;85;21394;-72
2021/05/12 08:10:04;;;;;;;3.47;0.80;;;;;;;9.76;100.00;100438.68;1617679;87;22081;-77
2021/05/12 08:12:31;;;;;;;2.10;0.40;;;;;;;9.83;100.00;100428.39;1639182;87;21488;-75
2021/05/12 08:14:57;;;;;;;3.40;0.83;;;;;;;9.88;100.00;100426.06;1621240;87;22125;-78
2021/05/12 08:17:23;;;;;;;2.03;0.80;;;;;;;9.96;100.00;100424.23;1639492;86;21933;-76
2021/05/12 08:19:50;;;;;;;2.83;0.50;;;;;;;10.24;100.00;100417.96;1636990;86;21274;-68
2021/05/12 08:22:16;;;;;;;1.87;0.50;;;;;;;10.57;100.00;100414.25;1640181;86;21529;-73
2021/05/12 08:24:43;;;;;;;5.47;0.70;;;;;;;10.77;100.00;100410.13;1619650;87;21505;-77
2021/05/12 08:27:10;;;;;;;5.33;0.80;;;;;;;10.85;100.00;100410.53;1644975;86;21763;-71
2021/05/12 08:29:37;;;;;;;1.97;0.77;;;;;;;10.84;100.00;100405.82;1644647;87;22313;-79
2021/05/12 08:32:05;;;;;;;2.00;0.63;;;;;;;10.87;100.00;100400.25;1644188;87;22379;-69
2021/05/12 08:34:31;;;;;;;4.13;0.87;;;;;;;10.96;100.00;100405.66;1643161;87;21762;-72
2021/05/12 08:36:58;;;;;;;2.10;0.43;;;;;;;11.04;100.00;100392.21;1620556;87;22248;-76
2021/05/12 08:39:24;;;;;;;3.00;0.70;;;;;;;11.04;100.00;100398.23;1638606;87;22269;-75
2021/05/12 08:41:51;;;;;;;1.57;0.60;;;;;;;11.03;100.00;100388.00;1644381;87;21858;-74
2021/05/12 08:44:17;;;;;;;2.20;0.70;;;;;;;11.11;100.00;100375.65;1596234;87;21798;-69
2021/05/12 08:46:44;;;;;;;2.77;0.83;;;;;;;11.23;100.00;100394.23;1644062;87;21749;-73
2021/05/12 08:49:10;;;;;;;1.77;0.67;;;;;;;11.37;100.00;100380.35;1597835;88;21754;-76
2021/05/12 08:51:37;;;;;;;3.60;0.87;;;;;;;11.67;100.00;100378.44;1621416;87;21139;-79
2021/05/12 08:54:04;;;;;;;1.77;0.67;;;;;;;12.01;100.00;100366.97;1619679;86;22255;-75
2021/05/12 08:56:30;;;;;;;2.10;0.77;;;;;;;12.29;100.00;100367.79;1601770;88;21176;-77
2021/05/12 08:58:58;;;;;;;2.60;0.87;;;;;;;12.55;100.00;100357.19;1620790;86;21082;-76
2021/05/12 09:01:25;;;;;;;3.83;1.10;;;;;;;12.84;100.00;100353.00;1613899;86;21150;-75
2021/05/12 09:03:51;;;;;;;2.37;0.80;;;;;;;13.33;100.00;100351.98;1614085;86;22198;-77
2021/05/12 09:06:18;;;;;;;1.50;0.60;;;;;;;13.93;100.00;100344.64;1611484;86;21618;-68
2021/05/12 09:08:47;;;;;;;2.77;0.70;;;;;;;14.35;100.00;100346.80;1617407;86;21275;-76
2021/05/12 09:11:13;;;;;;;1.80;0.70;;;;;;;14.53;100.00;100339.63;1609900;85;21646;-76
2021/05/12 09:13:41;;;;;;;2.17;0.53;;;;;;;14.39;100.00;100338.52;1628206;86;21076;-72
2021/05/12 09:16:24;;;;;;;1.67;0.60;;;;;;;14.21;100.00;100341.81;1637294;85;21112;-78
2021/05/12 09:19:05;;;;;;;2.17;0.57;;;;;;;14.17;100.00;100339.27;1628499;86;21668;-71
2021/05/12 09:21:47;;;;;;;2.55;0.85;;;;;;;14.25;100.00;100341.19;1645834;84;21153;-70
2021/05/12 09:24:25;;;;;;;2.77;0.60;;;;;;;14.38;100.00;100327.23;1650424;84;21072;-71
2021/05/12 09:26:54;;;;;;;1.90;0.57;;;;;;;14.66;100.00;100324.84;1622496;86;21209;-76
2021/05/12 09:29:41;;;;;;;1.50;0.70;;;;;;;15.11;100.00;100326.15;1627480;86;20961;-75
2021/05/12 09:32:13;;;;;;;1.03;0.40;;;;;;;15.28;100.00;100318.08;1630697;86;21948;-78
2021/05/12 09:35:07;;;;;;;2.03;0.50;;;;;;;15.26;100.00;100320.89;1623706;86;20969;-76
2021/05/12 09:37:36;;;;;;;1.47;0.70;;;;;;;15.04;100.00;100318.33;1630284;85;21112;-73
2021/05/12 09:40:13;;;;;;;1.27;0.60;;;;;;;14.99;100.00;100314.20;1622388;86;21163;-72
2021/05/12 09:42:41;;;;;;;1.47;0.60;;;;;;;15.02;100.00;100325.09;1634562;84;21172;-75
2021/05/12 09:45:20;;;;;;;1.40;0.80;;;;;;;14.86;100.00;100314.28;1622545;86;21088;-67
2021/05/12 09:47:50;;;;;;;3.97;0.70;;;;;;;14.58;100.00;100322.78;1627648;86;21095;-72
2021/05/12 09:50:25;;;;;;;2.97;0.90;;;;;;;14.34;100.00;100312.41;1619894;86;20965;-81
2021/05/12 09:52:58;;;;;;;2.43;0.80;;;;;;;14.23;100.00;100320.11;1617996;86;21566;-74
2021/05/12 09:55:47;;;;;;;1.37;0.70;;;;;;;14.25;100.00;100325.45;1626372;86;21116;-77
2021/05/12 09:58:22;;;;;;;1.70;0.83;;;;;;;14.29;100.00;100314.86;1629402;86;21176;-78
2021/05/12 10:00:51;;;;;;;2.97;1.00;;;;;;;14.17;100.00;100315.67;1624814;86;21596;-80
2021/05/12 10:03:24;;;;;;;2.97;0.93;;;;;;;13.89;100.00;100318.04;1625320;85;21145;-81
2021/05/12 10:06:01;;;;;;;3.27;1.23;;;;;;;13.60;100.00;100322.70;1618638;86;21060;-78
2021/05/12 10:08:34;;;;;;;2.40;1.23;;;;;;;13.47;100.00;100320.05;1619615;86;21077;-68
2021/05/12 10:11:05;;;;;;;5.57;1.33;;;;;;;13.44;100.00;100318.34;1601237;86;22676;-79
2021/05/12 10:13:33;;;;;;;4.63;1.90;;;;;;;13.37;100.00;100313.09;1630492;86;21180;-75
2021/05/12 10:16:01;;;;;;;3.33;1.97;;;;;;;13.36;100.00;100304.94;1635113;86;21641;-81
2021/05/12 10:18:27;;;;;;;5.07;1.80;;;;;;;13.50;100.00;100304.45;1628312;85;22136;-73
2021/05/12 10:20:57;;;;;;;5.07;1.30;;;;;;;13.55;100.00;100308.58;1663631;85;22513;-77
2021/05/12 10:23:22;;;;;;;4.13;1.60;;;;;;;13.49;100.00;100297.61;1667658;84;21308;-76
2021/05/12 10:25:49;;;;;;;4.23;1.60;;;;;;;13.41;100.00;100291.23;1673588;84;21069;-69
2021/05/12 10:28:15;;;;;;;2.43;1.20;;;;;;;13.57;100.00;100318.36;1660521;85;21691;-69
2021/05/12 10:30:42;;;;;;;2.67;1.03;;;;;;;13.72;100.00;100283.60;1660273;85;21081;-78
2021/05/12 10:33:12;;;;;;;2.63;1.10;;;;;;;13.99;100.00;100286.98;1662327;85;21686;-73
2021/05/12 10:35:38;;;;;;;1.93;0.90;;;;;;;14.25;100.00;100293.20;1638980;85;22717;-76
2021/05/12 10:38:06;;;;;;;5.03;1.43;;;;;;;14.41;100.00;100282.23;1615167;87;21073;-74
2021/05/12 10:40:40;;;;;;;4.27;1.20;;;;;;;14.41;100.00;100278.81;1638551;85;21172;-67
2021/05/12 10:43:30;;;;;;;3.87;1.20;;;;;;;14.54;100.00;100265.67;1661446;84;21168;-72
2021/05/12 10:45:58;;;;;;;2.83;0.87;;;;;;;14.83;100.00;100263.01;1671484;85;21145;-73
2021/05/12 10:48:36;;;;;;;2.47;1.13;;;;;;;15.27;100.00;100246.87;1626326;84;21068;-76
2021/05/12 10:51:09;;;;;;;2.70;1.03;;;;;;;15.48;100.00;100237.80;1666629;85;21124;-76
2021/05/12 10:53:44;;;;;;;4.47;1.00;;;;;;;15.56;100.00;100247.52;1649642;85;21113;-67
2021/05/12 10:56:13;;;;;;;2.93;0.70;;;;;;;15.53;100.00;100250.61;1629489;85;21803;-74
2021/05/12 10:58:55;;;;;;;3.00;0.90;;;;;;;15.37;100.00;100241.13;1631389;85;21132;-75
2021/05/12 11:01:22;;;;;;;2.90;0.90;;;;;;;15.23;100.00;100242.56;1663017;85;21161;-78
2021/05/12 11:03:54;;;;;;;5.73;0.70;;;;;;;15.28;100.00;100236.66;1671945;85;21310;-69
2021/05/12 11:06:24;;;;;;;2.20;0.90;;;;;;;15.45;100.00;100227.72;1669532;85;21627;-80
2021/05/12 11:09:08;;;;;;;2.77;0.80;;;;;;;15.68;100.00;100227.97;1636606;85;21112;-77
2021/05/12 11:11:41;;;;;;;3.03;1.00;;;;;;;15.90;100.00;100223.59;1668415;85;20997;-74
2021/05/12 11:14:31;;;;;;;4.00;1.13;;;;;;;15.90;100.00;100220.95;1662937;85;21083;-74
2021/05/12 11:17:14;;;;;;;2.57;1.00;;;;;;;15.89;100.00;100216.73;1666137;84;21441;-73
2021/05/12 11:33:34;;;;;;;4.27;1.57;;;;;;;15.88;100.00;100201.47;1649739;84;21112;-76
2021/05/12 11:36:10;;;;;;;2.67;1.30;;;;;;;15.59;100.00;100200.31;1638978;85;21188;-74
2021/05/12 11:38:34;;;;;;;4.37;1.40;;;;;;;15.43;100.00;100198.25;1657364;85;21159;-75
2021/05/12 11:41:09;;;;;;;3.27;1.10;;;;;;;15.30;100.00;100197.36;1655014;85;21023;-74
2021/05/12 11:43:49;;;;;;;5.90;1.43;;;;;;;15.15;100.00;100198.16;1658571;85;21135;-70
2021/05/12 11:46:35;;;;;;;5.93;1.43;;;;;;;14.96;100.00;100210.94;1663399;85;21140;-76
2021/05/12 11:49:04;;;;;;;3.33;1.00;;;;;;;14.86;100.00;100192.25;1671414;85;21602;-76
2021/05/12 11:51:43;;;;;;;3.13;1.20;;;;;;;14.72;100.00;100202.81;1643330;85;21518;-77
2021/05/12 11:54:24;;;;;;;4.00;1.23;;;;;;;14.51;100.00;100201.34;1621039;85;22687;-69
2021/05/12 11:56:54;;;;;;;4.78;1.55;;;;;;;14.29;100.00;100202.63;1662360;85;21150;-65
2021/05/12 11:59:24;;;;;;;4.70;1.40;;;;;;;14.07;100.00;100216.00;1623395;84;21192;-77
2021/05/12 12:01:57;;;;;;;4.37;1.80;;;;;;;13.62;100.00;100231.61;1663996;84;21041;-68
2021/05/12 12:04:35;;;;;;;4.50;2.10;;;;;;;13.11;100.00;100238.75;1627263;86;21199;-71
2021/05/12 12:06:58;;;;;;;4.63;2.27;;;;;;;12.66;100.00;100241.57;1618464;87;22672;-72
2021/05/12 12:09:24;;;;;;;6.67;2.57;;;;;;;12.28;100.00;100254.30;1622914;86;21506;-73
2021/05/12 12:11:51;;;;;;;4.73;1.87;;;;;;;11.95;100.00;100251.50;1640794;86;21025;-73
2021/05/12 12:14:17;;;;;;;3.67;1.53;;;;;;;11.61;100.00;100242.60;1633291;86;21670;-74
2021/05/12 12:16:45;;;;;;;5.37;1.70;;;;;;;11.43;100.00;100243.06;1637851;86;21764;-74
2021/05/12 12:19:16;;;;;;;7.90;3.77;;;;;;;11.37;100.00;100243.33;1637431;87;21217;-71
2021/05/12 12:21:45;;;;;;;7.10;2.45;;;;;;;11.46;100.00;100242.69;1613506;86;21158;-73
2021/05/12 12:24:14;;;;;;;3.70;1.50;;;;;;;11.67;100.00;100240.55;1635471;86;21040;-77
2021/05/12 12:26:45;;;;;;;4.60;1.67;;;;;;;11.85;100.00;100241.38;1610883;86;22398;-75
2021/05/12 12:29:11;;;;;;;7.33;2.80;;;;;;;11.97;100.00;100236.42;1640334;86;21194;-76
2021/05/12 12:31:44;;;;;;;5.23;2.20;;;;;;;12.05;100.00;100238.41;1644018;86;22430;-77
2021/05/12 12:34:20;;;;;;;7.00;2.40;;;;;;;12.12;100.00;100238.41;1640093;86;21090;-75
2021/05/12 12:37:17;;;;;;;6.07;2.70;;;;;;;12.14;100.00;100237.73;1617807;87;21162;-71
2021/05/12 12:39:59;;;;;;;5.47;2.47;;;;;;;12.07;100.00;100240.81;1641790;87;21818;-76
2021/05/12 12:42:36;;;;;;;6.37;2.70;;;;;;;11.96;100.00;100236.93;1621045;86;21175;-72
2021/05/12 12:45:30;;;;;;;6.17;2.40;;;;;;;11.86;100.00;100231.27;1618850;86;22833;-76
2021/05/12 12:48:01;;;;;;;5.10;1.87;;;;;;;11.71;100.00;100220.09;1650246;85;21097;-74
2021/05/12 12:50:30;;;;;;;5.22;1.90;;;;;;;11.56;100.00;100206.63;1621497;85;21216;-76
2021/05/12 12:52:58;;;;;;;6.23;1.97;;;;;;;11.42;100.00;100208.83;1660328;85;21417;-76
2021/05/12 12:55:27;;;;;;;6.13;1.90;;;;;;;11.34;100.00;100213.69;1657192;85;21735;-74
2021/05/12 12:58:04;;;;;;;6.00;1.70;;;;;;;11.36;100.00;100216.91;1655983;85;22812;-71
2021/05/12 13:00:34;;;;;;;6.40;1.93;;;;;;;11.44;100.00;100213.37;1671949;85;20998;-76
2021/05/12 13:03:18;;;;;;;5.20;1.80;;;;;;;11.58;100.00;100207.73;1659686;85;21682;-75
2021/05/12 13:05:55;;;;;;;4.00;1.57;;;;;;;11.72;100.00;100187.75;1648077;85;21413;-76
2021/05/12 13:08:26;;;;;;;6.53;1.80;;;;;;;11.86;100.00;100210.37;1646210;85;21331;-77
2021/05/12 13:11:08;;;;;;;7.60;2.17;;;;;;;11.98;100.00;100211.94;1646523;85;21766;-73
2021/05/12 13:13:49;;;;;;;5.70;1.93;;;;;;;12.04;100.00;100201.50;1616030;84;22453;-77
2021/05/12 13:16:27;;;;;;;4.33;1.63;;;;;;;12.13;100.00;100195.63;1643339;85;22079;-76
2021/05/12 13:19:07;;;;;;;8.28;2.42;;;;;;;12.21;100.00;100195.97;1631304;85;21196;-73
2021/05/12 13:21:37;;;;;;;5.70;2.43;;;;;;;12.29;100.00;100188.75;1616649;86;21398;-76
2021/05/12 13:24:09;;;;;;;5.27;2.17;;;;;;;12.39;100.00;100193.12;1621795;86;21242;-74
2021/05/12 13:26:40;;;;;;;6.20;2.77;;;;;;;12.45;100.00;100193.33;1599593;87;21142;-71
2021/05/12 13:29:13;;;;;;;5.03;2.10;;;;;;;12.41;100.00;100180.64;1619270;87;21120;-71
2021/05/12 13:31:39;;;;;;;3.23;1.33;;;;;;;12.44;100.00;100176.03;1601948;88;22479;-79
2021/05/12 13:34:13;;;;;;;5.60;1.90;;;;;;;12.47;100.00;100172.53;1601119;87;21253;-79
2021/05/12 13:36:37;;;;;;;4.03;2.00;;;;;;;12.51;100.00;100159.36;1599172;87;22814;-78
2021/05/12 13:39:05;;;;;;;4.47;1.70;;;;;;;12.56;100.00;100156.95;1599551;87;21213;-82
2021/05/12 13:41:32;;;;;;;6.63;2.03;;;;;;;12.59;100.00;100148.72;1601714;87;21104;-79
2021/05/12 13:43:59;;;;;;;3.77;1.63;;;;;;;12.60;100.00;100150.83;1599403;87;21190;-77
2021/05/12 13:46:25;;;;;;;3.47;1.60;;;;;;;12.60;100.00;100142.98;1619926;87;21096;-75
2021/05/12 13:48:53;;;;;;;5.63;2.00;;;;;;;12.59;100.00;100142.17;1616942;88;21561;-78
2021/05/12 13:51:21;;;;;;;5.53;1.90;;;;;;;12.60;100.00;100146.39;1648812;85;21340;-71
2021/05/12 13:56:25;;;;;;;3.97;1.63;;;;;;;12.59;100.00;100146.61;1613955;85;21013;-75
2021/05/12 14:04:09;;;;;;;6.33;2.10;;;;;;;12.59;100.00;100140.06;1647770;85;21101;-72
2021/05/12 14:06:35;;;;;;;4.90;1.80;;;;;;;12.65;100.00;100137.95;1650322;85;21033;-71
2021/05/12 14:09:14;;;;;;;10.93;2.30;;;;;;;12.71;100.00;100138.98;1648368;85;21149;-75
2021/05/12 14:11:43;;;;;;;5.57;2.03;;;;;;;12.79;100.00;100134.34;1648443;85;21156;-76
2021/05/12 14:14:12;;;;;;;6.03;2.20;;;;;;;12.86;100.00;100128.62;1647628;85;21138;-76
2021/05/12 14:19:20;;;;;;;8.17;2.33;;;;;;;13.09;100.00;100123.48;1613637;85;21069;-78
2021/05/12 14:21:46;;;;;;;7.73;2.10;;;;;;;13.22;100.00;100115.64;1613499;86;21917;-75
2021/05/12 14:24:13;;;;;;;5.80;2.40;;;;;;;13.34;100.00;100118.47;1654281;85;21010;-69
2021/05/12 14:26:39;;;;;;;5.77;2.20;;;;;;;13.46;100.00;100108.97;1651035;85;21147;-78
2021/05/12 14:29:07;;;;;;;9.97;2.67;;;;;;;13.49;100.00;100104.63;1653022;85;21017;-76
2021/05/12 14:31:33;;;;;;;6.47;2.53;;;;;;;13.47;100.00;100106.64;1615085;86;21085;-75
2021/05/12 14:34:00;;;;;;;7.17;2.50;;;;;;;13.48;100.00;100100.89;1653323;85;21119;-76
2021/05/12 14:36:27;;;;;;;6.30;1.90;;;;;;;13.52;100.00;100094.23;1654010;85;21215;-70
2021/05/12 14:38:54;;;;;;;9.83;2.97;;;;;;;13.55;100.00;100088.59;1652827;85;21654;-73
2021/05/12 14:41:20;;;;;;;6.83;2.37;;;;;;;13.53;100.00;100086.19;1652997;85;21138;-76
2021/05/12 14:43:47;;;;;;;5.77;2.50;;;;;;;13.51;100.00;100083.47;1653003;85;20986;-75
2021/05/12 14:46:13;;;;;;;7.63;2.97;;;;;;;13.46;100.00;100080.67;1653113;85;21140;-75
2021/05/12 14:48:45;;;;;;;7.67;2.70;;;;;;;13.44;100.00;100073.52;1652301;85;21650;-69
2021/05/12 14:51:14;;;;;;;7.33;2.80;;;;;;;13.45;100.00;100075.95;1610509;85;22649;-74
2021/05/12 14:53:38;;;;;;;7.73;2.63;;;;;;;13.51;100.00;100069.06;1610125;86;21156;-73
2021/05/12 14:56:23;;;;;;;6.30;2.63;;;;;;;13.60;100.00;100075.70;1612554;85;21009;-75
2021/05/12 15:06:48;;;;;;;6.07;2.50;;;;;;;13.84;100.00;100067.13;1622024;86;21045;-72
2021/05/12 15:09:09;;;;;;;17.70;14.75;;;;;;;13.81;100.00;100080.63;1615775;87;21021;-76
2021/05/12 15:11:35;;;;;;;473.23;402.63;;;;;;;13.73;100.00;100108.89;1606386;86;21053;-73